Airfield :
LOGIN :

Register | Disclaimer

   EN    FR    IT 

 










Legend :    VFR   Marginal VFR   IFR   Intensive IFR   Very Intensive IFR
Visi :
Ceiling :
>= 8 km
>= 3000ft
5 to 8 km
1000 to 3000 ft
1500m to 5 km
500 to 1000 ft
800 to 1500m
200 to 500 ft
< 800m
< 200 ft
Symbols :   Thunderstorms  Fog  Heavy snow  Heavy precipitations  Wind > 20 kt
SIGMETs :     Misc.  Thunderstorms  Icing  Turbulence  Mountain Waves  Volcanic Ashes






- Airport Elevation : 219 ft
- IATA code : DNR


LFRD - Dinard

CURRENT METAR :
  • 270830Z AUTO 27023G34KT 9999 BKN020 BKN027 OVC200 10/08 Q0995 TEMPO 28025G45KT 4000 SHRA BKN012

EXPIRED METARs :
  • 270800Z AUTO 27025G42KT 9999 OVC023 11/08 Q0994 TEMPO 4000 SHRA BKN012
  • 270730Z AUTO 26018G28KT 9999 BKN021 OVC026 12/10 Q0993 TEMPO 28025G45KT 4000 SHRA BKN012
  • 270700Z AUTO 24012KT 9999 -RADZ FEW008 OVC014 11/11 Q0993 TEMPO 28025G45KT 4000 SHRA
  • 270630Z AUTO 23014KT 9000 -DZ BKN012 OVC019 11/11 Q0993 TEMPO 28025G45KT 4000 SHRA
  • 270600Z AUTO 22014KT 7000 -RADZ BKN012 OVC018 10/10 Q0994 TEMPO 28025G45KT 4000 SHRA

TAF TAF LFRD
Valid from the 27 at 06:00 until the 28 at 06:00 UTC


270500Z 2706/2806 26020G35KT 9999 SCT010 BKN020
TEMPO 2706/2710 28025G45KT 4000 SHRA BKN012
BECMG 2709/2711 32020G35KT
BECMG 2715/2717 31012KT
BECMG 2718/2720 VRB05KT
BECMG 2800/2802 17012KT
BECMG 2803/2805 17015G25KT 5000 RA BKN015
ATIS : +33 2 99 16 81 50



MET'MAP, your aeronautical weather chart ! - Copyright ORBIFLY December 2007 - Disclaimer

ORBIFLY MET'MAP TEAM :

Programming & Development : Alexandra Zaïnal
Concept & original design : Baudouin d'Aumeries
Assistance for programming : Marc-Olivier Méhu
Technical & hardware support : Manuel Goepfert

Contact : metmap@orbifly.com




SOURCES & CREDITS :

   NOAA